sensor_id;sensor_type;location;lat;lon;timestamp;P1;durP1;ratioP1;P2;durP2;ratioP2
38972;SDS011;25333;50.762;4.470;2023-03-14T00:02:08;3.22;;;0.68;;
38972;SDS011;25333;50.762;4.470;2023-03-14T00:04:35;3.45;;;1.05;;
38972;SDS011;25333;50.762;4.470;2023-03-14T00:07:22;7.63;;;1.08;;
38972;SDS011;25333;50.762;4.470;2023-03-14T00:10:12;1.80;;;0.55;;
38972;SDS011;25333;50.762;4.470;2023-03-14T00:12:43;6.93;;;1.40;;
38972;SDS011;25333;50.762;4.470;2023-03-14T00:15:09;5.07;;;0.95;;
38972;SDS011;25333;50.762;4.470;2023-03-14T00:17:36;5.28;;;0.85;;
38972;SDS011;25333;50.762;4.470;2023-03-14T00:20:27;5.85;;;1.40;;
38972;SDS011;25333;50.762;4.470;2023-03-14T00:22:53;5.68;;;1.25;;
38972;SDS011;25333;50.762;4.470;2023-03-14T00:25:42;2.88;;;0.60;;
38972;SDS011;25333;50.762;4.470;2023-03-14T00:28:10;7.13;;;1.17;;
38972;SDS011;25333;50.762;4.470;2023-03-14T00:30:38;6.60;;;1.30;;
38972;SDS011;25333;50.762;4.470;2023-03-14T00:33:08;5.78;;;1.20;;
38972;SDS011;25333;50.762;4.470;2023-03-14T00:35:33;7.60;;;1.52;;
38972;SDS011;25333;50.762;4.470;2023-03-14T00:37:59;7.03;;;1.17;;
38972;SDS011;25333;50.762;4.470;2023-03-14T00:40:26;5.63;;;1.23;;
38972;SDS011;25333;50.762;4.470;2023-03-14T00:42:54;4.50;;;0.97;;
38972;SDS011;25333;50.762;4.470;2023-03-14T00:45:20;5.75;;;1.10;;
38972;SDS011;25333;50.762;4.470;2023-03-14T00:48:01;4.07;;;0.80;;
38972;SDS011;25333;50.762;4.470;2023-03-14T00:50:33;7.97;;;1.10;;
38972;SDS011;25333;50.762;4.470;2023-03-14T00:53:00;9.52;;;1.30;;
38972;SDS011;25333;50.762;4.470;2023-03-14T00:55:29;4.38;;;1.20;;
38972;SDS011;25333;50.762;4.470;2023-03-14T00:57:57;9.10;;;1.20;;
38972;SDS011;25333;50.762;4.470;2023-03-14T01:00:31;7.93;;;1.25;;
38972;SDS011;25333;50.762;4.470;2023-03-14T01:03:01;4.20;;;1.10;;
38972;SDS011;25333;50.762;4.470;2023-03-14T01:05:37;5.20;;;1.63;;
38972;SDS011;25333;50.762;4.470;2023-03-14T01:08:03;5.53;;;1.50;;
38972;SDS011;25333;50.762;4.470;2023-03-14T01:10:34;6.03;;;1.02;;
38972;SDS011;25333;50.762;4.470;2023-03-14T01:13:19;5.32;;;1.13;;
38972;SDS011;25333;50.762;4.470;2023-03-14T01:15:45;4.27;;;0.93;;
38972;SDS011;25333;50.762;4.470;2023-03-14T01:18:24;5.75;;;1.77;;
38972;SDS011;25333;50.762;4.470;2023-03-14T01:20:52;7.82;;;1.65;;
38972;SDS011;25333;50.762;4.470;2023-03-14T01:23:18;6.25;;;1.70;;
38972;SDS011;25333;50.762;4.470;2023-03-14T01:25:53;8.27;;;1.17;;
38972;SDS011;25333;50.762;4.470;2023-03-14T01:28:26;5.95;;;1.42;;
38972;SDS011;25333;50.762;4.470;2023-03-14T01:30:56;10.02;;;1.63;;
38972;SDS011;25333;50.762;4.470;2023-03-14T01:33:35;9.77;;;2.13;;
38972;SDS011;25333;50.762;4.470;2023-03-14T01:36:13;6.90;;;1.70;;
38972;SDS011;25333;50.762;4.470;2023-03-14T01:38:39;14.23;;;1.97;;
38972;SDS011;25333;50.762;4.470;2023-03-14T01:41:27;5.97;;;1.60;;
38972;SDS011;25333;50.762;4.470;2023-03-14T01:44:01;9.50;;;1.60;;
38972;SDS011;25333;50.762;4.470;2023-03-14T01:46:45;7.20;;;1.17;;
38972;SDS011;25333;50.762;4.470;2023-03-14T01:49:17;5.90;;;1.27;;
38972;SDS011;25333;50.762;4.470;2023-03-14T01:52:03;7.83;;;0.83;;
38972;SDS011;25333;50.762;4.470;2023-03-14T01:54:59;6.70;;;1.30;;
38972;SDS011;25333;50.762;4.470;2023-03-14T01:57:52;4.13;;;1.17;;
38972;SDS011;25333;50.762;4.470;2023-03-14T02:00:22;4.15;;;0.82;;
38972;SDS011;25333;50.762;4.470;2023-03-14T02:02:50;4.03;;;0.60;;
38972;SDS011;25333;50.762;4.470;2023-03-14T02:05:23;4.57;;;0.50;;
38972;SDS011;25333;50.762;4.470;2023-03-14T02:07:55;3.33;;;0.70;;
38972;SDS011;25333;50.762;4.470;2023-03-14T02:10:42;3.83;;;0.85;;
38972;SDS011;25333;50.762;4.470;2023-03-14T02:13:13;2.70;;;0.60;;
38972;SDS011;25333;50.762;4.470;2023-03-14T02:15:41;1.90;;;0.40;;
38972;SDS011;25333;50.762;4.470;2023-03-14T02:18:07;4.63;;;0.82;;
38972;SDS011;25333;50.762;4.470;2023-03-14T02:23:15;5.22;;;0.50;;
38972;SDS011;25333;50.762;4.470;2023-03-14T02:25:51;1.50;;;0.30;;
38972;SDS011;25333;50.762;4.470;2023-03-14T02:28:25;4.63;;;0.80;;
38972;SDS011;25333;50.762;4.470;2023-03-14T02:30:51;2.92;;;0.52;;
38972;SDS011;25333;50.762;4.470;2023-03-14T02:33:18;2.85;;;0.70;;
38972;SDS011;25333;50.762;4.470;2023-03-14T02:38:27;6.32;;;1.20;;
38972;SDS011;25333;50.762;4.470;2023-03-14T02:41:01;5.03;;;0.90;;
38972;SDS011;25333;50.762;4.470;2023-03-14T02:43:27;6.95;;;1.30;;
38972;SDS011;25333;50.762;4.470;2023-03-14T02:45:52;5.30;;;0.98;;
38972;SDS011;25333;50.762;4.470;2023-03-14T02:48:20;5.20;;;1.77;;
38972;SDS011;25333;50.762;4.470;2023-03-14T02:50:50;8.07;;;1.27;;
38972;SDS011;25333;50.762;4.470;2023-03-14T02:53:20;7.33;;;1.67;;
38972;SDS011;25333;50.762;4.470;2023-03-14T02:55:48;7.87;;;1.60;;
38972;SDS011;25333;50.762;4.470;2023-03-14T02:58:14;8.03;;;2.47;;
38972;SDS011;25333;50.762;4.470;2023-03-14T03:00:41;7.82;;;1.52;;
38972;SDS011;25333;50.762;4.470;2023-03-14T03:03:07;6.28;;;1.30;;
38972;SDS011;25333;50.762;4.470;2023-03-14T03:05:32;11.73;;;2.43;;
38972;SDS011;25333;50.762;4.470;2023-03-14T03:07:58;11.40;;;2.50;;
38972;SDS011;25333;50.762;4.470;2023-03-14T03:10:25;7.10;;;2.42;;
38972;SDS011;25333;50.762;4.470;2023-03-14T03:12:51;8.38;;;1.75;;
38972;SDS011;25333;50.762;4.470;2023-03-14T03:15:17;10.73;;;2.38;;
38972;SDS011;25333;50.762;4.470;2023-03-14T03:17:43;12.10;;;2.53;;
38972;SDS011;25333;50.762;4.470;2023-03-14T03:20:09;11.10;;;2.50;;
38972;SDS011;25333;50.762;4.470;2023-03-14T03:22:35;10.83;;;2.10;;
38972;SDS011;25333;50.762;4.470;2023-03-14T03:25:02;5.70;;;2.30;;
38972;SDS011;25333;50.762;4.470;2023-03-14T03:27:29;8.60;;;2.42;;
38972;SDS011;25333;50.762;4.470;2023-03-14T03:29:56;11.40;;;2.47;;
38972;SDS011;25333;50.762;4.470;2023-03-14T03:32:22;7.63;;;1.67;;
38972;SDS011;25333;50.762;4.470;2023-03-14T03:34:48;7.63;;;2.07;;
38972;SDS011;25333;50.762;4.470;2023-03-14T03:37:13;5.43;;;1.50;;
38972;SDS011;25333;50.762;4.470;2023-03-14T03:39:39;6.53;;;1.80;;
38972;SDS011;25333;50.762;4.470;2023-03-14T03:42:05;6.10;;;1.40;;
38972;SDS011;25333;50.762;4.470;2023-03-14T03:44:31;7.30;;;1.63;;
38972;SDS011;25333;50.762;4.470;2023-03-14T03:46:56;5.33;;;1.47;;
38972;SDS011;25333;50.762;4.470;2023-03-14T03:49:22;7.50;;;1.75;;
38972;SDS011;25333;50.762;4.470;2023-03-14T03:51:48;3.72;;;1.52;;
38972;SDS011;25333;50.762;4.470;2023-03-14T03:54:13;7.03;;;1.80;;
38972;SDS011;25333;50.762;4.470;2023-03-14T03:56:39;6.38;;;1.73;;
38972;SDS011;25333;50.762;4.470;2023-03-14T03:59:05;6.90;;;1.70;;
38972;SDS011;25333;50.762;4.470;2023-03-14T04:01:30;6.30;;;1.83;;
38972;SDS011;25333;50.762;4.470;2023-03-14T04:03:56;6.03;;;1.70;;
38972;SDS011;25333;50.762;4.470;2023-03-14T04:06:22;8.47;;;2.50;;
38972;SDS011;25333;50.762;4.470;2023-03-14T04:08:47;7.78;;;1.70;;
38972;SDS011;25333;50.762;4.470;2023-03-14T04:11:13;6.23;;;1.63;;
38972;SDS011;25333;50.762;4.470;2023-03-14T04:13:39;8.02;;;1.98;;
38972;SDS011;25333;50.762;4.470;2023-03-14T04:16:09;4.55;;;1.45;;
38972;SDS011;25333;50.762;4.470;2023-03-14T04:18:40;10.07;;;1.58;;
38972;SDS011;25333;50.762;4.470;2023-03-14T04:21:06;5.03;;;1.50;;
38972;SDS011;25333;50.762;4.470;2023-03-14T04:23:32;3.08;;;1.27;;
38972;SDS011;25333;50.762;4.470;2023-03-14T04:25:58;8.77;;;1.70;;
38972;SDS011;25333;50.762;4.470;2023-03-14T04:28:24;2.93;;;1.07;;
38972;SDS011;25333;50.762;4.470;2023-03-14T04:30:49;3.97;;;1.10;;
38972;SDS011;25333;50.762;4.470;2023-03-14T04:33:15;3.95;;;1.45;;
38972;SDS011;25333;50.762;4.470;2023-03-14T04:35:42;4.97;;;1.38;;
38972;SDS011;25333;50.762;4.470;2023-03-14T04:38:09;4.28;;;1.42;;
38972;SDS011;25333;50.762;4.470;2023-03-14T04:40:39;3.10;;;1.20;;
38972;SDS011;25333;50.762;4.470;2023-03-14T04:43:06;7.22;;;1.48;;
38972;SDS011;25333;50.762;4.470;2023-03-14T04:45:32;3.03;;;1.45;;
38972;SDS011;25333;50.762;4.470;2023-03-14T04:47:58;6.00;;;1.63;;
38972;SDS011;25333;50.762;4.470;2023-03-14T04:50:23;3.25;;;1.50;;
38972;SDS011;25333;50.762;4.470;2023-03-14T04:52:49;5.43;;;1.73;;
38972;SDS011;25333;50.762;4.470;2023-03-14T04:55:15;4.45;;;1.50;;
38972;SDS011;25333;50.762;4.470;2023-03-14T04:57:41;6.20;;;2.00;;
38972;SDS011;25333;50.762;4.470;2023-03-14T05:00:06;5.80;;;2.40;;
38972;SDS011;25333;50.762;4.470;2023-03-14T05:02:33;6.55;;;2.15;;
38972;SDS011;25333;50.762;4.470;2023-03-14T05:04:59;6.82;;;2.40;;
38972;SDS011;25333;50.762;4.470;2023-03-14T05:07:25;8.30;;;3.70;;
38972;SDS011;25333;50.762;4.470;2023-03-14T05:09:51;3.27;;;2.10;;
38972;SDS011;25333;50.762;4.470;2023-03-14T05:12:18;5.50;;;1.95;;
38972;SDS011;25333;50.762;4.470;2023-03-14T05:14:44;4.60;;;2.33;;
38972;SDS011;25333;50.762;4.470;2023-03-14T05:17:10;3.65;;;1.58;;
38972;SDS011;25333;50.762;4.470;2023-03-14T05:19:38;4.65;;;1.88;;
38972;SDS011;25333;50.762;4.470;2023-03-14T05:22:03;5.10;;;1.50;;
38972;SDS011;25333;50.762;4.470;2023-03-14T05:24:29;4.33;;;1.80;;
38972;SDS011;25333;50.762;4.470;2023-03-14T05:26:55;3.78;;;1.42;;
38972;SDS011;25333;50.762;4.470;2023-03-14T05:29:20;4.07;;;1.60;;
38972;SDS011;25333;50.762;4.470;2023-03-14T05:31:47;5.53;;;2.00;;
38972;SDS011;25333;50.762;4.470;2023-03-14T05:34:13;4.20;;;2.50;;
38972;SDS011;25333;50.762;4.470;2023-03-14T05:36:38;6.07;;;2.93;;
38972;SDS011;25333;50.762;4.470;2023-03-14T05:39:04;7.00;;;3.00;;
38972;SDS011;25333;50.762;4.470;2023-03-14T05:41:30;6.67;;;3.17;;
38972;SDS011;25333;50.762;4.470;2023-03-14T05:43:55;8.57;;;3.30;;
38972;SDS011;25333;50.762;4.470;2023-03-14T05:46:21;8.27;;;4.73;;
38972;SDS011;25333;50.762;4.470;2023-03-14T05:48:47;9.10;;;4.90;;
38972;SDS011;25333;50.762;4.470;2023-03-14T05:51:12;8.93;;;5.53;;
38972;SDS011;25333;50.762;4.470;2023-03-14T05:53:38;8.77;;;4.17;;
38972;SDS011;25333;50.762;4.470;2023-03-14T05:56:03;7.05;;;4.97;;
38972;SDS011;25333;50.762;4.470;2023-03-14T05:58:29;8.53;;;5.07;;
38972;SDS011;25333;50.762;4.470;2023-03-14T06:00:55;9.43;;;5.70;;
38972;SDS011;25333;50.762;4.470;2023-03-14T06:03:23;10.40;;;5.32;;
38972;SDS011;25333;50.762;4.470;2023-03-14T06:05:52;9.17;;;6.37;;
38972;SDS011;25333;50.762;4.470;2023-03-14T06:08:17;8.45;;;5.95;;
38972;SDS011;25333;50.762;4.470;2023-03-14T06:10:43;6.65;;;4.85;;
38972;SDS011;25333;50.762;4.470;2023-03-14T06:13:08;8.57;;;4.73;;
38972;SDS011;25333;50.762;4.470;2023-03-14T06:15:34;8.38;;;4.72;;
38972;SDS011;25333;50.762;4.470;2023-03-14T06:18:01;6.75;;;3.88;;
38972;SDS011;25333;50.762;4.470;2023-03-14T06:20:27;5.97;;;3.40;;
38972;SDS011;25333;50.762;4.470;2023-03-14T06:22:52;5.60;;;3.30;;
38972;SDS011;25333;50.762;4.470;2023-03-14T06:25:18;4.63;;;3.33;;
38972;SDS011;25333;50.762;4.470;2023-03-14T06:27:44;4.43;;;2.15;;
38972;SDS011;25333;50.762;4.470;2023-03-14T06:30:11;4.80;;;2.28;;
38972;SDS011;25333;50.762;4.470;2023-03-14T06:32:37;3.25;;;2.20;;
38972;SDS011;25333;50.762;4.470;2023-03-14T06:35:02;3.33;;;1.90;;
38972;SDS011;25333;50.762;4.470;2023-03-14T06:37:28;4.95;;;1.95;;
38972;SDS011;25333;50.762;4.470;2023-03-14T06:39:54;2.83;;;1.30;;
38972;SDS011;25333;50.762;4.470;2023-03-14T06:42:20;3.55;;;1.48;;
38972;SDS011;25333;50.762;4.470;2023-03-14T06:44:46;4.13;;;1.88;;
38972;SDS011;25333;50.762;4.470;2023-03-14T06:47:12;2.53;;;1.17;;
38972;SDS011;25333;50.762;4.470;2023-03-14T06:49:38;2.45;;;1.13;;
38972;SDS011;25333;50.762;4.470;2023-03-14T06:52:03;2.03;;;1.17;;
38972;SDS011;25333;50.762;4.470;2023-03-14T06:54:29;3.40;;;1.77;;
38972;SDS011;25333;50.762;4.470;2023-03-14T06:56:55;4.07;;;1.20;;
38972;SDS011;25333;50.762;4.470;2023-03-14T06:59:21;2.30;;;0.80;;
38972;SDS011;25333;50.762;4.470;2023-03-14T07:01:46;3.50;;;0.80;;
38972;SDS011;25333;50.762;4.470;2023-03-14T07:04:13;1.48;;;0.50;;
38972;SDS011;25333;50.762;4.470;2023-03-14T07:06:39;2.50;;;0.63;;
38972;SDS011;25333;50.762;4.470;2023-03-14T07:09:09;1.80;;;0.60;;
38972;SDS011;25333;50.762;4.470;2023-03-14T07:11:38;1.67;;;0.80;;
38972;SDS011;25333;50.762;4.470;2023-03-14T07:14:03;0.90;;;0.50;;
38972;SDS011;25333;50.762;4.470;2023-03-14T07:16:29;2.03;;;0.57;;
38972;SDS011;25333;50.762;4.470;2023-03-14T07:18:57;1.52;;;0.60;;
38972;SDS011;25333;50.762;4.470;2023-03-14T07:21:24;1.42;;;0.50;;
38972;SDS011;25333;50.762;4.470;2023-03-14T07:23:49;1.25;;;0.30;;
38972;SDS011;25333;50.762;4.470;2023-03-14T07:26:15;4.30;;;0.97;;
38972;SDS011;25333;50.762;4.470;2023-03-14T07:28:41;1.67;;;0.40;;
38972;SDS011;25333;50.762;4.470;2023-03-14T07:31:07;4.15;;;0.50;;
38972;SDS011;25333;50.762;4.470;2023-03-14T07:33:32;2.20;;;0.75;;
38972;SDS011;25333;50.762;4.470;2023-03-14T07:35:58;2.40;;;0.60;;
38972;SDS011;25333;50.762;4.470;2023-03-14T07:38:24;1.97;;;0.90;;
38972;SDS011;25333;50.762;4.470;2023-03-14T07:40:50;2.70;;;1.00;;
38972;SDS011;25333;50.762;4.470;2023-03-14T07:43:22;2.97;;;1.10;;
38972;SDS011;25333;50.762;4.470;2023-03-14T07:45:48;1.77;;;0.95;;
38972;SDS011;25333;50.762;4.470;2023-03-14T07:48:13;3.42;;;0.82;;
38972;SDS011;25333;50.762;4.470;2023-03-14T07:50:39;2.77;;;0.60;;
38972;SDS011;25333;50.762;4.470;2023-03-14T07:53:05;3.00;;;1.00;;
38972;SDS011;25333;50.762;4.470;2023-03-14T07:55:30;2.25;;;0.98;;
38972;SDS011;25333;50.762;4.470;2023-03-14T07:57:56;1.77;;;0.67;;
38972;SDS011;25333;50.762;4.470;2023-03-14T08:00:22;5.15;;;0.88;;
38972;SDS011;25333;50.762;4.470;2023-03-14T08:02:47;2.50;;;1.17;;
38972;SDS011;25333;50.762;4.470;2023-03-14T08:05:13;5.27;;;1.90;;
38972;SDS011;25333;50.762;4.470;2023-03-14T08:07:39;3.03;;;1.33;;
38972;SDS011;25333;50.762;4.470;2023-03-14T08:10:04;3.72;;;1.98;;
38972;SDS011;25333;50.762;4.470;2023-03-14T08:12:31;5.00;;;2.13;;
38972;SDS011;25333;50.762;4.470;2023-03-14T08:14:56;4.97;;;1.90;;
38972;SDS011;25333;50.762;4.470;2023-03-14T08:17:22;3.40;;;1.80;;
38972;SDS011;25333;50.762;4.470;2023-03-14T08:19:47;6.20;;;2.27;;
38972;SDS011;25333;50.762;4.470;2023-03-14T08:22:13;3.85;;;2.05;;
38972;SDS011;25333;50.762;4.470;2023-03-14T08:24:39;8.13;;;2.30;;
38972;SDS011;25333;50.762;4.470;2023-03-14T08:27:06;4.47;;;2.10;;
38972;SDS011;25333;50.762;4.470;2023-03-14T08:29:31;4.28;;;2.72;;
38972;SDS011;25333;50.762;4.470;2023-03-14T08:32:01;5.55;;;1.95;;
38972;SDS011;25333;50.762;4.470;2023-03-14T08:34:26;7.13;;;2.90;;
38972;SDS011;25333;50.762;4.470;2023-03-14T08:36:52;5.88;;;2.85;;
38972;SDS011;25333;50.762;4.470;2023-03-14T08:39:20;5.90;;;2.33;;
38972;SDS011;25333;50.762;4.470;2023-03-14T08:41:45;7.68;;;2.60;;
38972;SDS011;25333;50.762;4.470;2023-03-14T08:44:11;5.13;;;2.60;;
38972;SDS011;25333;50.762;4.470;2023-03-14T08:46:37;6.82;;;2.83;;
38972;SDS011;25333;50.762;4.470;2023-03-14T08:49:02;6.93;;;2.42;;
38972;SDS011;25333;50.762;4.470;2023-03-14T08:51:29;4.90;;;2.08;;
38972;SDS011;25333;50.762;4.470;2023-03-14T08:53:54;6.07;;;2.53;;
38972;SDS011;25333;50.762;4.470;2023-03-14T08:56:20;5.63;;;2.00;;
38972;SDS011;25333;50.762;4.470;2023-03-14T08:58:46;5.57;;;1.80;;
38972;SDS011;25333;50.762;4.470;2023-03-14T09:01:11;6.10;;;2.42;;
38972;SDS011;25333;50.762;4.470;2023-03-14T09:03:37;7.97;;;2.20;;
38972;SDS011;25333;50.762;4.470;2023-03-14T09:06:04;5.70;;;2.85;;
38972;SDS011;25333;50.762;4.470;2023-03-14T09:08:36;7.75;;;2.22;;
38972;SDS011;25333;50.762;4.470;2023-03-14T09:11:02;7.65;;;2.42;;
38972;SDS011;25333;50.762;4.470;2023-03-14T09:13:30;4.45;;;1.95;;
38972;SDS011;25333;50.762;4.470;2023-03-14T09:15:56;5.47;;;2.25;;
38972;SDS011;25333;50.762;4.470;2023-03-14T09:18:22;6.78;;;3.22;;
38972;SDS011;25333;50.762;4.470;2023-03-14T09:20:48;8.07;;;2.30;;
38972;SDS011;25333;50.762;4.470;2023-03-14T09:23:14;10.83;;;2.87;;
38972;SDS011;25333;50.762;4.470;2023-03-14T09:25:40;8.75;;;2.63;;
38972;SDS011;25333;50.762;4.470;2023-03-14T09:28:06;6.85;;;2.28;;
38972;SDS011;25333;50.762;4.470;2023-03-14T09:30:32;11.85;;;2.90;;
38972;SDS011;25333;50.762;4.470;2023-03-14T09:32:58;11.57;;;2.80;;
38972;SDS011;25333;50.762;4.470;2023-03-14T09:35:26;5.03;;;2.17;;
38972;SDS011;25333;50.762;4.470;2023-03-14T09:37:54;6.60;;;2.90;;
38972;SDS011;25333;50.762;4.470;2023-03-14T09:40:21;11.57;;;2.78;;
38972;SDS011;25333;50.762;4.470;2023-03-14T09:42:51;15.05;;;2.40;;
38972;SDS011;25333;50.762;4.470;2023-03-14T09:45:23;6.93;;;2.35;;
38972;SDS011;25333;50.762;4.470;2023-03-14T09:47:52;7.80;;;2.50;;
38972;SDS011;25333;50.762;4.470;2023-03-14T09:50:20;12.43;;;2.47;;
38972;SDS011;25333;50.762;4.470;2023-03-14T09:52:47;6.93;;;2.30;;
38972;SDS011;25333;50.762;4.470;2023-03-14T09:55:17;6.47;;;2.90;;
38972;SDS011;25333;50.762;4.470;2023-03-14T09:57:46;6.93;;;1.88;;
38972;SDS011;25333;50.762;4.470;2023-03-14T10:02:51;6.65;;;1.77;;
38972;SDS011;25333;50.762;4.470;2023-03-14T10:05:24;5.70;;;2.05;;
38972;SDS011;25333;50.762;4.470;2023-03-14T10:07:50;4.13;;;1.80;;
38972;SDS011;25333;50.762;4.470;2023-03-14T10:10:20;7.97;;;2.83;;
38972;SDS011;25333;50.762;4.470;2023-03-14T10:12:52;4.68;;;1.80;;
38972;SDS011;25333;50.762;4.470;2023-03-14T10:15:35;5.68;;;2.13;;
38972;SDS011;25333;50.762;4.470;2023-03-14T10:18:02;7.57;;;2.45;;
38972;SDS011;25333;50.762;4.470;2023-03-14T10:20:39;7.18;;;2.13;;
38972;SDS011;25333;50.762;4.470;2023-03-14T10:23:28;5.32;;;1.65;;
38972;SDS011;25333;50.762;4.470;2023-03-14T10:26:13;3.67;;;1.30;;
38972;SDS011;25333;50.762;4.470;2023-03-14T10:31:10;8.23;;;2.40;;
38972;SDS011;25333;50.762;4.470;2023-03-14T10:33:36;11.07;;;2.58;;
38972;SDS011;25333;50.762;4.470;2023-03-14T10:36:04;4.90;;;1.80;;
38972;SDS011;25333;50.762;4.470;2023-03-14T10:38:32;5.50;;;2.38;;
38972;SDS011;25333;50.762;4.470;2023-03-14T10:40:59;5.05;;;1.65;;
38972;SDS011;25333;50.762;4.470;2023-03-14T10:43:26;7.43;;;1.45;;
38972;SDS011;25333;50.762;4.470;2023-03-14T10:45:58;9.52;;;1.85;;
38972;SDS011;25333;50.762;4.470;2023-03-14T10:48:31;6.40;;;1.38;;
38972;SDS011;25333;50.762;4.470;2023-03-14T10:53:47;4.32;;;1.13;;
38972;SDS011;25333;50.762;4.470;2023-03-14T10:58:47;7.63;;;2.00;;
38972;SDS011;25333;50.762;4.470;2023-03-14T11:01:28;5.05;;;1.60;;
38972;SDS011;25333;50.762;4.470;2023-03-14T11:07:28;3.80;;;1.52;;
38972;SDS011;25333;50.762;4.470;2023-03-14T11:10:11;5.95;;;1.30;;
38972;SDS011;25333;50.762;4.470;2023-03-14T11:13:22;7.72;;;1.58;;
38972;SDS011;25333;50.762;4.470;2023-03-14T11:20:55;6.15;;;2.10;;
38972;SDS011;25333;50.762;4.470;2023-03-14T11:28:45;5.95;;;1.38;;
38972;SDS011;25333;50.762;4.470;2023-03-14T11:31:36;8.52;;;2.03;;
38972;SDS011;25333;50.762;4.470;2023-03-14T11:36:39;3.83;;;1.02;;
38972;SDS011;25333;50.762;4.470;2023-03-14T11:39:13;3.45;;;1.17;;
38972;SDS011;25333;50.762;4.470;2023-03-14T11:41:41;2.55;;;0.55;;
38972;SDS011;25333;50.762;4.470;2023-03-14T11:46:57;3.25;;;0.30;;
38972;SDS011;25333;50.762;4.470;2023-03-14T11:52:34;2.38;;;0.50;;
38972;SDS011;25333;50.762;4.470;2023-03-14T11:58:01;2.00;;;0.40;;
38972;SDS011;25333;50.762;4.470;2023-03-14T12:00:34;1.83;;;0.40;;
38972;SDS011;25333;50.762;4.470;2023-03-14T12:03:04;2.72;;;0.60;;
38972;SDS011;25333;50.762;4.470;2023-03-14T12:05:39;1.27;;;0.22;;
38972;SDS011;25333;50.762;4.470;2023-03-14T12:10:56;2.45;;;0.28;;
38972;SDS011;25333;50.762;4.470;2023-03-14T12:13:32;2.35;;;0.50;;
38972;SDS011;25333;50.762;4.470;2023-03-14T12:16:03;1.05;;;0.30;;
38972;SDS011;25333;50.762;4.470;2023-03-14T12:18:31;2.23;;;0.47;;
38972;SDS011;25333;50.762;4.470;2023-03-14T12:21:07;2.03;;;0.83;;
38972;SDS011;25333;50.762;4.470;2023-03-14T12:23:58;4.07;;;1.75;;
38972;SDS011;25333;50.762;4.470;2023-03-14T12:26:24;3.10;;;0.43;;
38972;SDS011;25333;50.762;4.470;2023-03-14T12:28:52;1.35;;;0.47;;
38972;SDS011;25333;50.762;4.470;2023-03-14T12:36:48;3.20;;;0.70;;
38972;SDS011;25333;50.762;4.470;2023-03-14T12:39:59;1.63;;;0.60;;
38972;SDS011;25333;50.762;4.470;2023-03-14T12:45:29;2.25;;;0.60;;
38972;SDS011;25333;50.762;4.470;2023-03-14T12:48:01;1.25;;;0.70;;
38972;SDS011;25333;50.762;4.470;2023-03-14T12:50:53;2.00;;;0.68;;
38972;SDS011;25333;50.762;4.470;2023-03-14T12:53:33;2.80;;;0.50;;
38972;SDS011;25333;50.762;4.470;2023-03-14T12:56:20;1.77;;;0.70;;
38972;SDS011;25333;50.762;4.470;2023-03-14T13:01:30;1.85;;;1.02;;
38972;SDS011;25333;50.762;4.470;2023-03-14T13:04:02;2.30;;;0.80;;
38972;SDS011;25333;50.762;4.470;2023-03-14T13:06:53;3.33;;;1.00;;
38972;SDS011;25333;50.762;4.470;2023-03-14T13:11:55;1.90;;;1.00;;
38972;SDS011;25333;50.762;4.470;2023-03-14T13:14:25;2.55;;;1.30;;
38972;SDS011;25333;50.762;4.470;2023-03-14T13:16:53;2.42;;;0.90;;
38972;SDS011;25333;50.762;4.470;2023-03-14T13:19:20;1.98;;;0.88;;
38972;SDS011;25333;50.762;4.470;2023-03-14T13:21:50;2.67;;;1.17;;
38972;SDS011;25333;50.762;4.470;2023-03-14T13:24:24;2.28;;;1.25;;
38972;SDS011;25333;50.762;4.470;2023-03-14T13:26:54;1.93;;;0.70;;
38972;SDS011;25333;50.762;4.470;2023-03-14T13:29:24;4.35;;;0.93;;
38972;SDS011;25333;50.762;4.470;2023-03-14T13:31:53;1.23;;;0.60;;
38972;SDS011;25333;50.762;4.470;2023-03-14T13:34:24;2.67;;;0.80;;
38972;SDS011;25333;50.762;4.470;2023-03-14T13:36:54;2.00;;;1.08;;
38972;SDS011;25333;50.762;4.470;2023-03-14T13:39:21;1.38;;;0.57;;
38972;SDS011;25333;50.762;4.470;2023-03-14T13:41:50;2.20;;;0.60;;
38972;SDS011;25333;50.762;4.470;2023-03-14T13:44:22;3.28;;;0.70;;
38972;SDS011;25333;50.762;4.470;2023-03-14T13:47:00;2.13;;;0.63;;
38972;SDS011;25333;50.762;4.470;2023-03-14T13:49:27;2.97;;;1.17;;
38972;SDS011;25333;50.762;4.470;2023-03-14T13:51:56;3.43;;;0.90;;
38972;SDS011;25333;50.762;4.470;2023-03-14T13:54:22;6.23;;;1.37;;
38972;SDS011;25333;50.762;4.470;2023-03-14T13:56:59;5.28;;;2.08;;
38972;SDS011;25333;50.762;4.470;2023-03-14T13:59:26;2.60;;;1.30;;
38972;SDS011;25333;50.762;4.470;2023-03-14T14:01:53;9.70;;;1.60;;
38972;SDS011;25333;50.762;4.470;2023-03-14T14:04:24;4.50;;;1.33;;
38972;SDS011;25333;50.762;4.470;2023-03-14T14:06:55;4.72;;;1.50;;
38972;SDS011;25333;50.762;4.470;2023-03-14T14:12:02;6.00;;;1.42;;
38972;SDS011;25333;50.762;4.470;2023-03-14T14:14:40;6.30;;;1.58;;
38972;SDS011;25333;50.762;4.470;2023-03-14T14:17:11;6.47;;;1.60;;
38972;SDS011;25333;50.762;4.470;2023-03-14T14:19:39;8.30;;;2.20;;
38972;SDS011;25333;50.762;4.470;2023-03-14T14:22:08;8.98;;;1.55;;
38972;SDS011;25333;50.762;4.470;2023-03-14T14:24:35;8.80;;;2.03;;
38972;SDS011;25333;50.762;4.470;2023-03-14T14:27:07;5.68;;;1.30;;
38972;SDS011;25333;50.762;4.470;2023-03-14T14:29:37;11.20;;;1.70;;
38972;SDS011;25333;50.762;4.470;2023-03-14T14:34:38;11.77;;;2.30;;
38972;SDS011;25333;50.762;4.470;2023-03-14T14:37:23;9.93;;;2.33;;
38972;SDS011;25333;50.762;4.470;2023-03-14T14:39:52;8.68;;;1.77;;
38972;SDS011;25333;50.762;4.470;2023-03-14T14:42:20;11.67;;;1.97;;
38972;SDS011;25333;50.762;4.470;2023-03-14T14:44:49;10.30;;;2.38;;
38972;SDS011;25333;50.762;4.470;2023-03-14T14:47:17;8.60;;;2.00;;
38972;SDS011;25333;50.762;4.470;2023-03-14T14:49:46;12.70;;;1.98;;
38972;SDS011;25333;50.762;4.470;2023-03-14T14:52:14;9.13;;;2.13;;
38972;SDS011;25333;50.762;4.470;2023-03-14T14:54:45;12.68;;;1.65;;
38972;SDS011;25333;50.762;4.470;2023-03-14T14:57:17;7.27;;;1.93;;
38972;SDS011;25333;50.762;4.470;2023-03-14T14:59:44;8.82;;;1.48;;
38972;SDS011;25333;50.762;4.470;2023-03-14T15:02:35;6.57;;;1.73;;
38972;SDS011;25333;50.762;4.470;2023-03-14T15:05:12;5.57;;;1.10;;
38972;SDS011;25333;50.762;4.470;2023-03-14T15:07:39;7.55;;;1.98;;
38972;SDS011;25333;50.762;4.470;2023-03-14T15:10:05;4.45;;;1.08;;
38972;SDS011;25333;50.762;4.470;2023-03-14T15:12:34;5.95;;;0.75;;
38972;SDS011;25333;50.762;4.470;2023-03-14T15:15:00;4.72;;;0.38;;
38972;SDS011;25333;50.762;4.470;2023-03-14T15:17:25;3.80;;;0.50;;
38972;SDS011;25333;50.762;4.470;2023-03-14T15:19:51;2.17;;;0.27;;
38972;SDS011;25333;50.762;4.470;2023-03-14T15:22:17;1.48;;;0.38;;
38972;SDS011;25333;50.762;4.470;2023-03-14T15:24:43;1.42;;;0.13;;
38972;SDS011;25333;50.762;4.470;2023-03-14T15:27:11;0.90;;;0.20;;
38972;SDS011;25333;50.762;4.470;2023-03-14T15:29:39;1.63;;;0.20;;
38972;SDS011;25333;50.762;4.470;2023-03-14T15:32:05;1.83;;;0.20;;
38972;SDS011;25333;50.762;4.470;2023-03-14T15:34:31;2.58;;;0.30;;
38972;SDS011;25333;50.762;4.470;2023-03-14T15:36:57;0.55;;;0.10;;
38972;SDS011;25333;50.762;4.470;2023-03-14T15:39:23;1.97;;;0.30;;
38972;SDS011;25333;50.762;4.470;2023-03-14T15:41:48;1.80;;;0.27;;
38972;SDS011;25333;50.762;4.470;2023-03-14T15:44:14;1.48;;;0.20;;
38972;SDS011;25333;50.762;4.470;2023-03-14T15:46:39;2.10;;;0.20;;
38972;SDS011;25333;50.762;4.470;2023-03-14T15:49:05;1.77;;;0.20;;
38972;SDS011;25333;50.762;4.470;2023-03-14T15:51:31;1.33;;;0.25;;
38972;SDS011;25333;50.762;4.470;2023-03-14T15:53:57;2.90;;;0.60;;
38972;SDS011;25333;50.762;4.470;2023-03-14T15:56:22;0.80;;;0.27;;
38972;SDS011;25333;50.762;4.470;2023-03-14T15:58:49;5.25;;;2.58;;
38972;SDS011;25333;50.762;4.470;2023-03-14T16:01:16;6.18;;;3.00;;
38972;SDS011;25333;50.762;4.470;2023-03-14T16:03:43;5.33;;;1.87;;